Time;durP1;ratioP1;P1;durP2;ratioP2;P2;SDS_P1;SDS_P2;PMS_P1;PMS_P2;Temp;Humidity;BMP_temperature;BMP_pressure;BME280_temperature;BME280_humidity;BME280_pressure;Samples;Min_cycle;Max_cycle;Signal;HPM_P1;HPM_P2
2023/11/04 00:00:52;;;;;;;2.90;0.90;;;;;;;11.11;73.16;97635.13;5094350;28;20678;-63
2023/11/04 00:03:39;;;;;;;0.83;0.83;;;;;;;11.07;73.12;97639.59;5094322;28;20224;-61
2023/11/04 00:06:08;;;;;;;1.53;0.90;;;;;;;11.06;73.30;97644.84;5094028;28;20269;-60
2023/11/04 00:08:36;;;;;;;0.87;0.70;;;;;;;11.03;72.77;97650.16;5094455;28;20188;-62
2023/11/04 00:11:05;;;;;;;1.73;0.60;;;;;;;11.01;72.34;97650.25;5093938;28;20204;-62
2023/11/04 00:13:33;;;;;;;1.87;0.87;;;;;;;10.96;72.31;97659.94;5094001;28;20235;-63
2023/11/04 00:16:06;;;;;;;1.27;0.70;;;;;;;10.91;72.33;97655.94;5094121;28;20232;-63
2023/11/04 00:18:33;;;;;;;0.87;0.80;;;;;;;10.85;72.22;97662.22;5093999;28;20236;-69
2023/11/04 00:21:04;;;;;;;0.70;0.70;;;;;;;10.79;72.45;97655.66;5092410;28;20236;-68
2023/11/04 00:23:31;;;;;;;0.80;0.73;;;;;;;10.77;72.28;97674.69;5093616;28;20201;-68
2023/11/04 00:26:00;;;;;;;1.57;0.70;;;;;;;10.72;72.43;97674.91;5093803;28;20234;-67
2023/11/04 00:28:28;;;;;;;0.67;0.60;;;;;;;10.70;72.24;97699.06;5093865;28;20203;-63
2023/11/04 00:30:56;;;;;;;0.67;0.50;;;;;;;10.64;72.58;97695.91;5093698;28;20394;-66
2023/11/04 00:33:24;;;;;;;1.50;0.50;;;;;;;10.58;72.39;97709.06;5093327;28;20258;-64
2023/11/04 00:35:52;;;;;;;1.43;0.40;;;;;;;10.55;72.06;97731.56;5093452;28;20288;-63
2023/11/04 00:38:22;;;;;;;0.40;0.40;;;;;;;10.48;71.64;97725.88;5093581;28;20220;-62
2023/11/04 00:40:50;;;;;;;0.50;0.50;;;;;;;10.42;70.35;97733.91;5093568;28;20208;-64
2023/11/04 00:43:18;;;;;;;2.10;0.40;;;;;;;10.33;69.51;97732.59;5093482;28;20204;-67
2023/11/04 00:45:46;;;;;;;2.13;0.40;;;;;;;10.22;69.53;97723.69;5093200;28;20231;-67
2023/11/04 00:48:14;;;;;;;0.53;0.40;;;;;;;10.15;69.10;97746.28;5093370;28;20211;-71
2023/11/04 00:50:42;;;;;;;0.33;0.33;;;;;;;10.08;70.08;97757.78;5093469;28;20549;-70
2023/11/04 00:53:10;;;;;;;1.07;0.50;;;;;;;10.02;70.54;97758.91;5101752;28;20212;-70
2023/11/04 00:55:40;;;;;;;0.60;0.50;;;;;;;9.99;71.60;97771.06;5087413;28;20720;-69
2023/11/04 00:58:08;;;;;;;0.47;0.40;;;;;;;9.89;72.01;97786.91;5079660;28;20204;-70
2023/11/04 01:00:39;;;;;;;0.70;0.40;;;;;;;9.79;72.77;97777.09;5093212;28;20211;-70
2023/11/04 01:03:07;;;;;;;1.70;0.40;;;;;;;9.71;73.33;97772.31;5093046;28;20196;-70
2023/11/04 01:05:35;;;;;;;1.80;0.50;;;;;;;9.64;72.59;97789.72;5093191;28;20204;-71
2023/11/04 01:08:04;;;;;;;1.67;0.50;;;;;;;9.54;72.94;97819.34;5092918;28;20221;-71
2023/11/04 01:10:32;;;;;;;0.50;0.50;;;;;;;9.46;73.49;97799.97;5093102;28;20211;-71
2023/11/04 01:13:01;;;;;;;1.00;0.63;;;;;;;9.41;73.52;97807.91;5093282;28;20212;-73
2023/11/04 01:15:29;;;;;;;0.40;0.40;;;;;;;9.38;73.15;97814.00;5093311;28;20662;-72
2023/11/04 01:17:57;;;;;;;0.63;0.50;;;;;;;9.32;72.66;97823.72;5092990;28;20232;-72
2023/11/04 01:20:26;;;;;;;0.40;0.40;;;;;;;9.29;72.08;97839.25;5092819;28;20244;-70
2023/11/04 01:22:54;;;;;;;0.43;0.30;;;;;;;9.23;72.43;97845.47;5092480;28;20255;-73
2023/11/04 01:25:21;;;;;;;0.30;0.30;;;;;;;9.23;71.69;97844.66;5093027;28;20268;-72
2023/11/04 01:27:50;;;;;;;0.60;0.60;;;;;;;9.16;71.83;97850.03;5092571;28;20205;-70
2023/11/04 01:30:20;;;;;;;0.80;0.40;;;;;;;9.16;72.43;97844.88;5092867;28;20192;-71
2023/11/04 01:32:48;;;;;;;0.47;0.37;;;;;;;9.15;72.63;97866.34;5086534;28;20208;-71
2023/11/04 01:35:17;;;;;;;1.03;0.40;;;;;;;9.06;73.46;97884.72;5092370;28;20234;-72
2023/11/04 01:37:45;;;;;;;0.37;0.30;;;;;;;8.99;73.96;97867.88;5093089;28;20749;-70
2023/11/04 01:40:14;;;;;;;2.23;0.30;;;;;;;8.91;73.24;97880.16;5092421;28;20223;-68
2023/11/04 01:42:45;;;;;;;0.40;0.40;;;;;;;8.85;73.68;97883.84;5092674;28;20265;-67
2023/11/04 01:45:14;;;;;;;0.30;0.30;;;;;;;8.81;73.30;97887.41;5092839;28;20208;-67
2023/11/04 01:47:45;;;;;;;0.60;0.50;;;;;;;8.76;73.76;97894.44;5092556;28;20201;-68
2023/11/04 01:50:13;;;;;;;0.60;0.40;;;;;;;8.77;74.46;97903.00;5092564;28;20200;-68
2023/11/04 01:52:44;;;;;;;0.60;0.50;;;;;;;8.71;74.36;97875.81;5092308;28;20208;-67
2023/11/04 01:55:14;;;;;;;0.73;0.30;;;;;;;8.66;75.04;97891.41;5092610;28;20220;-67
2023/11/04 01:57:43;;;;;;;1.23;0.40;;;;;;;8.64;74.79;97907.75;5092582;28;20663;-70
2023/11/04 02:00:12;;;;;;;0.30;0.30;;;;;;;8.66;74.61;97911.13;5091689;28;20636;-67
2023/11/04 02:02:41;;;;;;;0.27;0.20;;;;;;;8.64;75.08;97910.34;5092428;28;20652;-68
2023/11/04 02:05:10;;;;;;;0.40;0.40;;;;;;;8.60;75.00;97916.47;5092441;28;20278;-67
2023/11/04 02:07:38;;;;;;;0.30;0.30;;;;;;;8.57;74.11;97935.38;5106798;28;20307;-68
2023/11/04 02:10:07;;;;;;;0.20;0.20;;;;;;;8.57;74.07;97932.00;5092366;28;20567;-67
2023/11/04 02:12:35;;;;;;;0.50;0.37;;;;;;;8.54;74.73;97920.09;5092157;28;20232;-68
2023/11/04 02:15:02;;;;;;;0.40;0.30;;;;;;;8.53;74.70;97951.81;5091819;28;20215;-70
2023/11/04 02:17:30;;;;;;;0.77;0.30;;;;;;;8.45;74.68;97953.81;5091859;28;20237;-67
2023/11/04 02:20:02;;;;;;;0.70;0.40;;;;;;;8.43;75.35;97969.28;5091603;28;20270;-67
2023/11/04 02:22:31;;;;;;;0.50;0.40;;;;;;;8.36;76.86;97964.41;5091250;28;20295;-70
2023/11/04 02:24:59;;;;;;;0.20;0.20;;;;;;;8.32;77.98;97973.94;5091452;28;20197;-66
2023/11/04 02:27:27;;;;;;;0.73;0.40;;;;;;;8.22;77.92;97987.97;5091027;28;20204;-67
2023/11/04 02:29:55;;;;;;;0.30;0.30;;;;;;;8.10;79.64;97985.81;5091766;28;20212;-68
2023/11/04 02:32:23;;;;;;;0.30;0.30;;;;;;;8.08;79.94;97985.88;5091499;28;20224;-69
2023/11/04 02:34:51;;;;;;;0.40;0.30;;;;;;;8.08;80.51;97985.88;5086117;28;20588;-68
2023/11/04 02:37:19;;;;;;;2.17;0.40;;;;;;;8.05;79.82;97996.25;5091667;28;20668;-67
2023/11/04 02:39:48;;;;;;;1.90;0.40;;;;;;;8.05;81.07;98001.38;5091898;28;20217;-68
2023/11/04 02:42:17;;;;;;;0.50;0.30;;;;;;;8.06;80.84;98008.16;5091436;28;20209;-67
2023/11/04 02:44:45;;;;;;;0.60;0.30;;;;;;;8.07;81.48;98004.72;5091623;28;20219;-67
2023/11/04 02:47:13;;;;;;;0.47;0.40;;;;;;;8.05;80.40;98013.34;5091979;28;20581;-70
2023/11/04 02:49:42;;;;;;;1.37;0.40;;;;;;;8.04;80.89;98020.22;5091491;28;20236;-69
2023/11/04 02:52:10;;;;;;;0.47;0.30;;;;;;;8.04;80.39;98027.09;5090503;28;20208;-69
2023/11/04 02:54:39;;;;;;;0.40;0.40;;;;;;;7.99;79.39;98020.38;5100925;28;20196;-70
2023/11/04 02:57:08;;;;;;;0.67;0.50;;;;;;;7.98;79.87;98020.41;5091371;28;20211;-68
2023/11/04 02:59:36;;;;;;;1.13;0.90;;;;;;;7.95;79.13;98016.25;5091048;28;20638;-72
2023/11/04 03:02:05;;;;;;;1.50;0.60;;;;;;;7.96;79.19;98024.78;5091081;28;20288;-70
2023/11/04 03:04:34;;;;;;;0.30;0.30;;;;;;;7.95;78.25;98021.38;5091171;28;20289;-69
2023/11/04 03:07:02;;;;;;;0.50;0.40;;;;;;;7.96;78.95;98027.34;5090597;28;20287;-68
2023/11/04 03:09:30;;;;;;;2.30;0.40;;;;;;;7.98;78.45;98030.69;5090965;28;20250;-71
2023/11/04 03:11:58;;;;;;;0.40;0.40;;;;;;;7.99;78.38;98029.81;5094142;28;20196;-69
2023/11/04 03:14:28;;;;;;;1.70;0.60;;;;;;;8.01;78.13;98038.28;5095327;28;20200;-68
2023/11/04 03:16:56;;;;;;;0.63;0.40;;;;;;;8.02;77.69;98047.63;5095358;28;20667;-69
2023/11/04 03:19:25;;;;;;;0.30;0.30;;;;;;;8.07;77.06;98044.94;5095152;28;20207;-69
2023/11/04 03:21:53;;;;;;;0.50;0.50;;;;;;;8.07;77.18;98061.16;5095197;28;20223;-68
2023/11/04 03:24:22;;;;;;;0.97;0.40;;;;;;;8.11;76.98;98061.91;5095423;28;20287;-68
2023/11/04 03:26:50;;;;;;;0.50;0.50;;;;;;;8.16;77.03;98060.84;5095026;28;20283;-74
2023/11/04 03:29:19;;;;;;;0.97;0.60;;;;;;;8.15;76.40;98064.31;5095196;28;20235;-68
2023/11/04 03:31:49;;;;;;;0.40;0.40;;;;;;;8.17;76.97;98056.53;5094068;28;20212;-70
2023/11/04 03:34:17;;;;;;;2.03;0.50;;;;;;;8.18;76.96;98069.34;5090792;28;20289;-68
2023/11/04 03:36:45;;;;;;;1.43;0.60;;;;;;;8.17;76.84;98079.63;5094457;28;20744;-69
2023/11/04 03:39:13;;;;;;;1.00;0.60;;;;;;;8.13;77.75;98084.03;5094804;28;20219;-69
2023/11/04 03:41:41;;;;;;;0.93;0.60;;;;;;;8.13;77.19;98084.03;5097271;28;20232;-70
2023/11/04 03:44:09;;;;;;;1.50;0.60;;;;;;;8.15;78.11;98074.56;5094952;28;20595;-69
2023/11/04 03:46:39;;;;;;;1.20;0.60;;;;;;;8.20;77.38;98093.19;5094600;28;20205;-70
2023/11/04 03:49:08;;;;;;;0.53;0.53;;;;;;;8.20;76.64;98093.19;5094678;28;20240;-67
2023/11/04 03:51:37;;;;;;;1.83;0.67;;;;;;;8.13;77.45;98091.72;5094647;28;20604;-70
2023/11/04 03:54:05;;;;;;;1.13;0.80;;;;;;;8.16;77.04;98091.63;5094495;28;20672;-69
2023/11/04 03:56:33;;;;;;;3.00;0.80;;;;;;;8.14;77.41;98101.09;5099848;28;20200;-68
2023/11/04 03:59:02;;;;;;;1.07;0.60;;;;;;;8.15;76.56;98095.09;5094512;28;20248;-70
2023/11/04 04:01:30;;;;;;;0.80;0.60;;;;;;;8.14;76.37;98098.53;5094617;28;20219;-72
2023/11/04 04:03:58;;;;;;;0.50;0.50;;;;;;;8.14;76.53;98106.25;5092973;28;20201;-71
2023/11/04 04:06:27;;;;;;;1.03;0.67;;;;;;;8.14;77.17;98113.94;5093983;28;20235;-70
2023/11/04 04:08:55;;;;;;;0.40;0.40;;;;;;;8.12;76.47;98110.56;5094198;28;20212;-71
2023/11/04 04:11:23;;;;;;;1.70;0.60;;;;;;;8.16;76.87;98119.00;5094306;28;20208;-72
2023/11/04 04:13:51;;;;;;;0.50;0.50;;;;;;;8.16;76.63;98117.28;5094318;28;20211;-71
2023/11/04 04:16:22;;;;;;;0.40;0.40;;;;;;;8.16;76.60;98112.13;5094451;28;20649;-72
2023/11/04 04:18:51;;;;;;;0.77;0.70;;;;;;;8.15;76.56;98105.34;5094254;28;20232;-70
2023/11/04 04:21:20;;;;;;;0.70;0.70;;;;;;;8.17;76.96;98112.97;5093818;28;20653;-70
2023/11/04 04:23:49;;;;;;;1.23;0.70;;;;;;;8.16;76.41;98127.53;5094027;28;20204;-70
2023/11/04 04:26:21;;;;;;;1.13;0.50;;;;;;;8.16;75.58;98116.44;5093841;28;20232;-71
2023/11/04 04:28:49;;;;;;;1.40;0.43;;;;;;;8.15;76.63;98120.72;5093895;28;20242;-72
2023/11/04 04:31:17;;;;;;;1.33;0.50;;;;;;;8.15;75.71;98136.13;5094133;28;20676;-72
2023/11/04 04:33:45;;;;;;;2.20;0.70;;;;;;;8.13;76.56;98130.19;5087311;28;20230;-71
2023/11/04 04:36:14;;;;;;;4.13;0.90;;;;;;;8.16;76.41;98137.78;5094661;28;20262;-71
2023/11/04 04:38:42;;;;;;;0.67;0.50;;;;;;;8.19;75.90;98145.41;5093904;28;20594;-70
2023/11/04 04:41:11;;;;;;;1.77;0.80;;;;;;;8.20;75.43;98154.75;5093796;28;20235;-75
2023/11/04 04:43:39;;;;;;;0.93;0.50;;;;;;;8.19;75.90;98145.41;5093791;28;20250;-72
2023/11/04 04:46:09;;;;;;;0.50;0.50;;;;;;;8.19;76.27;98150.53;5094092;28;20277;-73
2023/11/04 04:48:37;;;;;;;0.87;0.60;;;;;;;8.19;76.25;98147.97;5094176;28;20249;-73
2023/11/04 04:51:05;;;;;;;1.10;0.67;;;;;;;8.20;76.06;98159.88;5093810;28;20235;-72
2023/11/04 04:53:36;;;;;;;1.53;0.60;;;;;;;8.20;76.60;98174.44;5093792;28;20292;-71
2023/11/04 04:56:05;;;;;;;1.77;0.70;;;;;;;8.21;76.69;98166.72;5093760;28;20201;-73
2023/11/04 04:58:34;;;;;;;0.73;0.60;;;;;;;8.22;76.52;98185.50;5094062;28;20760;-74
2023/11/04 05:01:03;;;;;;;0.47;0.47;;;;;;;8.22;76.58;98168.38;5093574;28;20224;-72
2023/11/04 05:03:31;;;;;;;0.73;0.70;;;;;;;8.24;76.73;98182.00;5092293;28;20238;-72
2023/11/04 05:05:59;;;;;;;0.73;0.57;;;;;;;8.22;76.50;98182.94;5093587;28;20208;-72
2023/11/04 05:08:27;;;;;;;0.60;0.60;;;;;;;8.24;75.85;98192.25;5093735;28;20193;-73
2023/11/04 05:10:55;;;;;;;0.70;0.70;;;;;;;8.26;76.03;98194.78;5093785;28;20292;-71
2023/11/04 05:13:24;;;;;;;1.77;0.77;;;;;;;8.28;76.95;98205.00;5079725;28;20657;-74
2023/11/04 05:15:56;;;;;;;0.83;0.60;;;;;;;8.28;76.15;98208.38;5093913;28;20663;-74
2023/11/04 05:18:24;;;;;;;0.87;0.80;;;;;;;8.31;75.84;98212.59;5093306;28;20263;-73
2023/11/04 05:20:53;;;;;;;0.93;0.83;;;;;;;8.27;76.36;98223.84;5093384;28;20224;-73
2023/11/04 05:23:21;;;;;;;0.47;0.47;;;;;;;8.29;76.29;98217.78;5093478;28;20279;-72
2023/11/04 05:25:49;;;;;;;1.27;0.87;;;;;;;8.30;75.74;98226.31;5093106;28;20563;-74
2023/11/04 05:28:17;;;;;;;0.73;0.70;;;;;;;8.35;76.19;98232.13;5093357;28;20200;-73
2023/11/04 05:30:45;;;;;;;1.00;0.90;;;;;;;8.35;76.20;98227.00;5093234;28;20699;-73
2023/11/04 05:33:16;;;;;;;1.57;0.70;;;;;;;8.35;75.57;98237.25;5091822;28;20628;-73
2023/11/04 05:35:44;;;;;;;1.27;0.80;;;;;;;8.33;75.75;98237.31;5092849;28;20212;-73
2023/11/04 05:38:13;;;;;;;3.33;0.93;;;;;;;8.32;76.24;98242.50;5093326;28;20663;-73
2023/11/04 05:40:41;;;;;;;1.33;0.70;;;;;;;8.34;75.92;98243.28;5092764;28;20201;-74
2023/11/04 05:43:09;;;;;;;2.50;0.90;;;;;;;8.32;75.71;98252.75;5092764;28;20200;-70
2023/11/04 05:45:37;;;;;;;1.10;0.73;;;;;;;8.35;75.82;98266.31;5092609;28;20200;-72
2023/11/04 05:48:06;;;;;;;0.77;0.77;;;;;;;8.33;75.16;98273.25;5093054;28;20623;-73
2023/11/04 05:50:38;;;;;;;2.07;0.90;;;;;;;8.33;75.20;98272.41;5092321;28;20200;-74
2023/11/04 05:53:06;;;;;;;0.90;0.67;;;;;;;8.35;75.01;98273.19;5093318;28;20196;-75
2023/11/04 05:55:35;;;;;;;1.20;1.10;;;;;;;8.38;75.34;98278.25;5092699;28;20211;-72
2023/11/04 05:58:07;;;;;;;0.70;0.70;;;;;;;8.37;75.64;98281.69;5092638;28;20295;-73
2023/11/04 06:00:37;;;;;;;1.87;0.67;;;;;;;8.37;75.38;98284.25;5092601;28;20209;-72
2023/11/04 06:03:06;;;;;;;1.80;1.00;;;;;;;8.37;75.19;98291.97;5100316;28;20315;-72
2023/11/04 06:05:35;;;;;;;1.90;1.00;;;;;;;8.39;74.60;98292.75;5092547;28;20205;-71
2023/11/04 06:08:05;;;;;;;1.50;0.90;;;;;;;8.36;75.03;98300.56;5092411;28;20232;-73
2023/11/04 06:10:33;;;;;;;0.97;0.77;;;;;;;8.36;75.09;98298.81;5095926;28;20207;-74
2023/11/04 06:13:01;;;;;;;1.20;0.80;;;;;;;8.40;75.05;98299.59;5092638;28;20205;-72
2023/11/04 06:15:29;;;;;;;1.07;0.80;;;;;;;8.40;74.27;98302.16;5096241;28;20206;-74
2023/11/04 06:17:57;;;;;;;1.00;0.90;;;;;;;8.44;75.18;98301.19;5096369;28;20236;-70
2023/11/04 06:20:25;;;;;;;1.00;0.90;;;;;;;8.44;75.07;98303.75;5092090;28;20235;-69
2023/11/04 06:22:53;;;;;;;2.40;0.97;;;;;;;8.45;74.73;98306.25;5092014;28;20220;-70
2023/11/04 06:25:23;;;;;;;0.70;0.70;;;;;;;8.49;74.55;98312.13;5092184;28;20203;-69
2023/11/04 06:27:51;;;;;;;0.83;0.70;;;;;;;8.48;74.70;98302.75;5092216;28;20655;-68
2023/11/04 06:30:19;;;;;;;0.83;0.70;;;;;;;8.49;74.39;98309.56;5091960;28;20197;-69
2023/11/04 06:32:47;;;;;;;2.30;1.00;;;;;;;8.52;74.28;98319.75;5092053;28;20556;-71
2023/11/04 06:35:15;;;;;;;0.70;0.70;;;;;;;8.53;74.24;98316.28;5091886;28;20200;-71
2023/11/04 06:37:44;;;;;;;1.20;0.80;;;;;;;8.53;74.19;98316.28;5091860;28;20626;-69
2023/11/04 06:40:13;;;;;;;2.97;1.00;;;;;;;8.54;74.59;98323.09;5091430;28;20201;-71
2023/11/04 06:42:42;;;;;;;1.60;0.80;;;;;;;8.48;74.28;98320.72;5090830;28;20221;-70
2023/11/04 06:45:11;;;;;;;1.47;1.17;;;;;;;8.50;74.29;98330.94;5090768;28;20624;-68
2023/11/04 06:47:39;;;;;;;1.23;1.00;;;;;;;8.45;74.30;98333.66;5090735;28;20672;-69
2023/11/04 06:50:08;;;;;;;0.77;0.70;;;;;;;8.46;74.10;98340.47;5091361;28;20197;-70
2023/11/04 06:52:37;;;;;;;2.40;0.70;;;;;;;8.45;73.76;98338.78;5073591;28;20204;-69
2023/11/04 06:55:05;;;;;;;0.70;0.70;;;;;;;8.45;74.71;98354.19;5091438;28;20204;-70
2023/11/04 06:57:34;;;;;;;0.90;0.73;;;;;;;8.49;74.69;98349.81;5091152;28;20204;-70
2023/11/04 07:00:05;;;;;;;0.93;0.90;;;;;;;8.53;73.97;98352.22;5091523;28;20223;-69
2023/11/04 07:02:36;;;;;;;1.07;0.90;;;;;;;8.53;74.35;98362.50;5089692;28;20216;-70
2023/11/04 07:05:05;;;;;;;0.90;0.90;;;;;;;8.56;74.27;98375.22;5091406;28;20215;-70
2023/11/04 07:07:33;;;;;;;1.20;1.00;;;;;;;8.57;74.32;98369.22;5091425;28;20597;-68
2023/11/04 07:10:01;;;;;;;2.13;1.10;;;;;;;8.56;73.80;98359.84;5077565;28;20200;-69
2023/11/04 07:12:30;;;;;;;1.10;1.00;;;;;;;8.59;73.46;98376.88;5090544;28;20243;-69
2023/11/04 07:14:58;;;;;;;1.13;0.80;;;;;;;8.60;73.56;98365.72;5090790;28;20204;-69
2023/11/04 07:17:28;;;;;;;1.17;0.93;;;;;;;8.61;73.74;98375.91;5091041;28;20236;-69
2023/11/04 07:19:57;;;;;;;0.90;0.90;;;;;;;8.58;74.12;98373.47;5091039;28;20256;-71
2023/11/04 07:22:25;;;;;;;1.07;0.90;;;;;;;8.58;74.07;98388.88;5091194;28;20273;-70
2023/11/04 07:24:54;;;;;;;1.40;1.00;;;;;;;8.54;73.50;98374.44;5090857;28;20682;-69
2023/11/04 07:27:22;;;;;;;1.63;1.13;;;;;;;8.54;74.49;98387.25;5072712;28;20212;-69
2023/11/04 07:29:51;;;;;;;2.13;1.30;;;;;;;8.56;74.39;98380.38;5091273;28;20197;-67
2023/11/04 07:32:19;;;;;;;1.43;1.20;;;;;;;8.58;74.26;98383.75;5086292;28;20255;-73
2023/11/04 07:34:49;;;;;;;1.70;1.10;;;;;;;8.62;74.14;98387.91;5091008;28;20679;-71
2023/11/04 07:37:17;;;;;;;2.77;0.93;;;;;;;8.66;74.27;98384.34;5072771;28;20197;-72
2023/11/04 07:39:45;;;;;;;1.47;1.23;;;;;;;8.71;73.57;98395.31;5091416;28;20670;-73
2023/11/04 07:42:13;;;;;;;1.13;1.03;;;;;;;8.71;72.92;98382.47;5090932;28;20295;-72
2023/11/04 07:44:41;;;;;;;2.33;1.00;;;;;;;8.68;73.64;98395.38;5091389;28;20272;-72
2023/11/04 07:47:10;;;;;;;4.17;1.30;;;;;;;8.69;73.51;98409.94;5091025;28;20536;-72
2023/11/04 07:49:38;;;;;;;1.13;1.00;;;;;;;8.43;73.89;98367.06;5091784;28;20666;-71
2023/11/04 07:52:09;;;;;;;1.77;1.30;;;;;;;8.70;73.69;98409.03;5091037;28;20683;-72
2023/11/04 07:54:37;;;;;;;2.37;1.03;;;;;;;8.68;73.74;98408.22;5091817;28;20648;-72
2023/11/04 07:57:06;;;;;;;2.10;1.37;;;;;;;8.68;73.92;98408.22;5092459;28;20231;-73
2023/11/04 07:59:34;;;;;;;2.13;1.30;;;;;;;8.65;73.96;98408.34;5094979;28;20248;-72
2023/11/04 08:02:02;;;;;;;2.23;1.10;;;;;;;8.71;73.97;98412.44;5094667;28;20279;-73
2023/11/04 08:04:30;;;;;;;2.57;1.23;;;;;;;8.73;73.71;98412.38;5095287;28;20209;-73
2023/11/04 08:06:59;;;;;;;1.50;1.30;;;;;;;8.80;74.02;98412.19;5105672;28;20267;-74
2023/11/04 08:09:28;;;;;;;1.40;1.13;;;;;;;8.80;73.81;98413.88;5094578;28;20204;-73
2023/11/04 08:11:56;;;;;;;1.87;1.17;;;;;;;8.83;73.50;98417.19;5094531;28;20288;-72
2023/11/04 08:14:24;;;;;;;1.93;1.53;;;;;;;8.88;73.24;98411.94;5094116;28;20201;-71
2023/11/04 08:16:53;;;;;;;2.97;1.40;;;;;;;8.92;73.07;98416.94;5094435;28;20319;-75
2023/11/04 08:19:21;;;;;;;1.50;1.17;;;;;;;8.97;73.48;98418.50;5094256;28;20204;-73
2023/11/04 08:21:50;;;;;;;1.93;1.60;;;;;;;8.99;73.03;98412.44;5093552;28;20652;-74
2023/11/04 08:24:18;;;;;;;3.87;1.70;;;;;;;9.05;72.96;98408.81;5094091;28;20228;-72
2023/11/04 08:26:48;;;;;;;2.53;1.50;;;;;;;9.10;73.80;98400.09;5094126;28;20651;-71
2023/11/04 08:29:16;;;;;;;2.97;1.53;;;;;;;9.16;72.41;98410.16;5094581;28;20231;-73
2023/11/04 08:31:44;;;;;;;1.63;1.43;;;;;;;9.12;72.53;98403.44;5093546;28;20200;-72
2023/11/04 08:34:12;;;;;;;3.27;1.50;;;;;;;9.19;72.87;98410.06;5093745;28;20254;-72
2023/11/04 08:36:40;;;;;;;4.17;1.60;;;;;;;9.21;72.17;98422.88;5094085;28;20633;-71
2023/11/04 08:39:09;;;;;;;1.77;1.40;;;;;;;9.25;72.49;98428.75;5094054;28;20292;-72
2023/11/04 08:41:40;;;;;;;1.90;1.70;;;;;;;9.33;72.53;98426.78;5093445;28;20261;-70
2023/11/04 08:44:09;;;;;;;1.93;1.50;;;;;;;9.34;72.21;98426.72;5093441;28;20224;-72
2023/11/04 08:46:37;;;;;;;2.53;1.50;;;;;;;9.45;72.15;98436.66;5093647;28;20250;-71
2023/11/04 08:49:06;;;;;;;2.93;1.50;;;;;;;9.57;71.49;98433.69;5093729;28;20204;-73
2023/11/04 08:51:35;;;;;;;3.10;1.50;;;;;;;9.70;71.40;98435.84;5093769;28;20656;-71
2023/11/04 08:54:03;;;;;;;3.13;1.70;;;;;;;9.77;70.48;98435.59;5093494;28;20316;-70
2023/11/04 08:56:31;;;;;;;4.10;1.50;;;;;;;9.87;70.88;98439.53;5093576;28;20208;-71
2023/11/04 08:58:59;;;;;;;3.77;2.03;;;;;;;9.98;70.62;98446.88;5094139;28;20216;-72
2023/11/04 09:01:28;;;;;;;1.97;1.63;;;;;;;10.04;69.27;98462.09;5098910;28;20593;-72
2023/11/04 09:03:57;;;;;;;1.80;1.53;;;;;;;9.95;69.34;98451.28;5092954;28;20289;-71
2023/11/04 09:06:32;;;;;;;2.23;1.50;;;;;;;9.92;69.96;98452.22;5091893;28;20616;-73
2023/11/04 09:09:01;;;;;;;2.13;1.60;;;;;;;9.99;69.84;98453.69;5093288;28;20239;-70
2023/11/04 09:11:29;;;;;;;2.07;1.50;;;;;;;9.96;68.85;98442.66;5093348;28;20215;-70
2023/11/04 09:13:57;;;;;;;1.77;1.30;;;;;;;9.86;69.32;98452.41;5093588;28;20201;-71
2023/11/04 09:16:25;;;;;;;3.63;1.50;;;;;;;9.85;69.76;98461.88;5092968;28;20209;-71
2023/11/04 09:18:55;;;;;;;2.73;1.43;;;;;;;9.91;69.99;98459.09;5093004;28;20680;-70
2023/11/04 09:21:23;;;;;;;2.70;1.50;;;;;;;9.97;69.77;98440.03;5093137;28;20246;-69
2023/11/04 09:23:52;;;;;;;4.73;1.50;;;;;;;10.06;69.71;98444.88;5093050;28;20220;-70
2023/11/04 09:26:20;;;;;;;2.43;1.57;;;;;;;10.15;68.88;98446.25;5092612;28;20197;-70
2023/11/04 09:28:49;;;;;;;2.83;1.80;;;;;;;10.22;68.50;98454.63;5092974;28;20295;-71
2023/11/04 09:31:17;;;;;;;3.27;1.53;;;;;;;10.14;68.32;98448.00;5092899;28;20571;-70
2023/11/04 09:33:45;;;;;;;1.50;1.30;;;;;;;10.13;68.76;98440.34;5092743;28;20201;-69
2023/11/04 09:36:15;;;;;;;3.63;1.60;;;;;;;10.14;68.97;98442.84;5092284;28;20211;-68
2023/11/04 09:38:43;;;;;;;3.67;1.47;;;;;;;10.17;68.22;98436.78;5092715;28;20296;-71
2023/11/04 09:41:11;;;;;;;2.33;1.60;;;;;;;10.17;68.39;98444.50;5092810;28;20201;-72
2023/11/04 09:43:40;;;;;;;3.63;1.27;;;;;;;10.19;68.38;98434.13;5092474;28;20212;-71
2023/11/04 09:46:09;;;;;;;3.33;1.30;;;;;;;10.25;68.66;98437.34;5099604;28;20296;-71
2023/11/04 09:48:38;;;;;;;2.83;1.63;;;;;;;10.22;68.57;98429.72;5093020;28;20262;-71
2023/11/04 09:51:15;;;;;;;3.20;1.43;;;;;;;10.19;68.51;98439.28;5092449;28;20200;-69
2023/11/04 09:53:52;;;;;;;1.80;1.40;;;;;;;10.20;68.46;98456.38;5092409;28;20261;-71
2023/11/04 09:56:22;;;;;;;1.50;1.20;;;;;;;10.21;68.59;98445.22;5092461;28;20196;-69
2023/11/04 09:58:50;;;;;;;3.70;1.73;;;;;;;10.19;68.62;98442.69;5092389;28;20231;-68
2023/11/04 10:01:20;;;;;;;1.50;1.40;;;;;;;10.17;68.76;98444.50;5091799;28;20208;-72
2023/11/04 10:03:48;;;;;;;3.00;1.60;;;;;;;10.21;68.58;98443.47;5091926;28;20212;-68
2023/11/04 10:06:19;;;;;;;1.57;1.43;;;;;;;10.32;68.49;98440.56;5090765;28;20600;-70
2023/11/04 10:08:49;;;;;;;2.90;1.70;;;;;;;10.36;68.43;98431.81;5092034;28;20205;-69
2023/11/04 10:11:18;;;;;;;1.53;1.43;;;;;;;10.41;68.49;98424.75;5092305;28;20208;-69
2023/11/04 10:13:46;;;;;;;2.73;1.50;;;;;;;10.52;68.30;98438.06;5091943;28;20713;-68
2023/11/04 10:16:15;;;;;;;2.17;1.33;;;;;;;10.62;67.65;98448.88;5091912;28;20197;-69
2023/11/04 10:18:44;;;;;;;3.13;1.70;;;;;;;10.63;67.28;98440.25;5091615;28;20248;-69
2023/11/04 10:21:12;;;;;;;2.77;1.60;;;;;;;10.58;67.51;98430.13;5091083;28;20201;-70
2023/11/04 10:23:40;;;;;;;4.13;1.77;;;;;;;10.64;68.21;98437.63;5091651;28;20298;-68
2023/11/04 10:26:13;;;;;;;5.80;1.53;;;;;;;10.74;68.15;98432.13;5091652;28;20261;-68
2023/11/04 10:28:41;;;;;;;2.80;2.00;;;;;;;10.87;67.30;98446.22;5091332;28;20200;-68
2023/11/04 10:31:11;;;;;;;1.87;1.37;;;;;;;10.88;66.06;98441.00;5091887;28;20220;-71
2023/11/04 10:33:41;;;;;;;2.20;1.60;;;;;;;10.88;66.35;98437.59;5086010;28;20554;-69
2023/11/04 10:36:11;;;;;;;2.73;1.37;;;;;;;10.89;66.78;98442.66;5101584;28;20200;-71
2023/11/04 10:38:44;;;;;;;4.27;1.30;;;;;;;10.97;66.93;98441.53;5093812;28;20603;-68
2023/11/04 10:41:17;;;;;;;2.97;1.37;;;;;;;11.05;66.67;98442.94;5091295;28;20664;-69
2023/11/04 10:43:49;;;;;;;3.17;1.50;;;;;;;11.06;65.19;98433.47;5091230;28;20280;-68
2023/11/04 10:46:24;;;;;;;3.57;1.57;;;;;;;11.08;65.94;98431.66;5091673;28;20200;-69
2023/11/04 10:49:02;;;;;;;2.43;1.40;;;;;;;11.21;65.78;98426.84;5091111;28;20246;-70
2023/11/04 10:51:42;;;;;;;2.10;1.23;;;;;;;11.26;65.10;98430.06;5091709;28;20207;-72
2023/11/04 10:54:11;;;;;;;2.33;1.27;;;;;;;11.32;64.65;98425.53;5091240;28;20214;-68
2023/11/04 10:56:48;;;;;;;2.03;1.33;;;;;;;11.35;64.25;98437.47;5091296;28;20201;-70
2023/11/04 10:59:27;;;;;;;2.33;1.40;;;;;;;11.35;64.30;98432.31;5091230;28;20200;-69
2023/11/04 11:01:57;;;;;;;1.87;1.50;;;;;;;11.44;64.59;98443.97;5091345;28;20208;-69
2023/11/04 11:04:26;;;;;;;1.30;1.20;;;;;;;11.58;64.52;98437.34;5091395;28;20603;-70
2023/11/04 11:06:54;;;;;;;1.93;1.50;;;;;;;11.70;63.87;98436.00;5089440;28;20273;-69
2023/11/04 11:09:24;;;;;;;3.50;1.50;;;;;;;11.76;63.69;98434.91;5093070;28;20201;-69
2023/11/04 11:12:00;;;;;;;2.23;1.13;;;;;;;11.83;62.92;98432.03;5090943;28;20292;-71
2023/11/04 11:14:29;;;;;;;2.53;1.33;;;;;;;11.87;63.18;98440.47;5091252;28;20566;-69
2023/11/04 11:17:00;;;;;;;3.30;1.33;;;;;;;11.85;62.80;98434.53;5091106;28;20211;-69
2023/11/04 11:19:29;;;;;;;2.47;1.57;;;;;;;11.85;62.35;98435.38;5091282;28;20210;-70
2023/11/04 11:21:57;;;;;;;4.07;1.77;;;;;;;11.84;62.56;98438.84;5091253;28;20211;-69
2023/11/04 11:24:25;;;;;;;2.63;1.67;;;;;;;11.88;62.62;98441.31;5090245;28;20220;-70
2023/11/04 11:27:00;;;;;;;2.27;1.50;;;;;;;11.87;62.54;98440.47;5090972;28;20201;-70
2023/11/04 11:29:29;;;;;;;5.33;1.70;;;;;;;11.89;61.98;98441.25;5091139;28;20211;-70
2023/11/04 11:32:08;;;;;;;4.37;1.53;;;;;;;11.84;62.12;98443.19;5091927;28;20609;-70
2023/11/04 11:34:36;;;;;;;2.53;1.50;;;;;;;11.79;62.45;98455.44;5095077;28;20204;-71
2023/11/04 11:37:05;;;;;;;3.73;1.60;;;;;;;11.73;62.23;98453.94;5094250;28;20245;-70
2023/11/04 11:39:35;;;;;;;2.27;1.40;;;;;;;11.69;62.99;98441.22;5095124;28;20208;-70
2023/11/04 11:42:05;;;;;;;3.47;1.80;;;;;;;11.68;62.49;98447.28;5094552;28;20197;-69
2023/11/04 11:44:34;;;;;;;4.13;2.13;;;;;;;11.64;63.03;98453.50;5094771;28;20223;-68
2023/11/04 11:47:03;;;;;;;3.23;1.73;;;;;;;11.60;63.40;98452.78;5094756;28;20291;-71